Time;durP1;ratioP1;P1;durP2;ratioP2;P2;SDS_P1;SDS_P2;PMS_P1;PMS_P2;Temp;Humidity;BMP_temperature;BMP_pressure;BME280_temperature;BME280_humidity;BME280_pressure;Samples;Min_cycle;Max_cycle;Signal;HPM_P1;HPM_P2
2024/04/09 00:00:25;;;;;;;;;4.00;3.00;;;;;21.87;100.00;98479.25;6662692;26;94581;-62
2024/04/09 00:03:37;;;;;;;;;4.00;4.00;;;;;21.80;100.00;98471.41;6702320;26;94814;-62
2024/04/09 00:06:40;;;;;;;;;5.00;4.00;;;;;21.79;100.00;98478.06;6689075;26;94665;-62
2024/04/09 00:09:45;;;;;;;;;6.00;6.00;;;;;21.76;100.00;98475.91;6657915;26;96548;-62
2024/04/09 00:12:52;;;;;;;;;5.00;4.00;;;;;21.73;100.00;98471.03;6687482;26;94710;-62
2024/04/09 00:15:54;;;;;;;;;4.00;4.00;;;;;21.70;100.00;98462.59;6682059;26;94798;-62
2024/04/09 00:19:02;;;;;;;;;5.00;4.00;;;;;21.66;100.00;98467.03;6688000;25;94697;-62
2024/04/09 00:22:05;;;;;;;;;3.40;3.40;;;;;21.64;100.00;98469.31;6659533;26;94498;-62
2024/04/09 00:25:10;;;;;;;;;6.00;5.00;;;;;21.54;100.00;98460.16;6667102;26;97157;-62
2024/04/09 00:28:16;;;;;;;;;5.00;5.00;;;;;21.54;100.00;98454.66;6703797;25;94409;-62
2024/04/09 00:31:20;;;;;;;;;4.80;4.00;;;;;21.50;100.00;98448.13;6703551;26;94717;-62
2024/04/09 00:34:29;;;;;;;;;4.00;3.00;;;;;21.44;100.00;98443.88;6669633;26;96759;-62
2024/04/09 00:37:34;;;;;;;;;4.00;4.00;;;;;21.45;100.00;98464.69;6660247;25;94773;-62
2024/04/09 00:40:42;;;;;;;;;4.00;4.00;;;;;21.39;100.00;98456.88;6656588;26;94480;-62
2024/04/09 00:43:45;;;;;;;;;4.40;4.00;;;;;21.33;100.00;98450.66;6727684;25;94646;-62
2024/04/09 00:46:51;;;;;;;;;3.80;3.80;;;;;21.37;100.00;98457.16;6698761;26;94905;-62
2024/04/09 00:49:56;;;;;;;;;4.20;4.00;;;;;21.36;100.00;98451.97;6699501;26;94978;-62
2024/04/09 00:53:03;;;;;;;;;4.00;4.00;;;;;21.29;100.00;98457.88;6682813;25;94754;-61
2024/04/09 00:56:11;;;;;;;;;3.40;3.40;;;;;21.15;100.00;98443.31;6702424;26;94290;-61
2024/04/09 00:59:16;;;;;;;;;4.20;4.00;;;;;21.16;100.00;98447.66;6704783;25;94371;-59
2024/04/09 01:02:21;;;;;;;;;4.40;4.00;;;;;21.17;100.00;98457.53;6695649;26;94419;-59
2024/04/09 01:05:27;;;;;;;;;3.40;3.00;;;;;21.17;100.00;98447.38;6719335;20;96553;-60
2024/04/09 01:08:32;;;;;;;;;5.00;4.20;;;;;21.17;100.00;98452.03;6655921;26;94879;-60
2024/04/09 01:11:37;;;;;;;;;4.60;4.00;;;;;21.14;100.00;98449.91;6639569;26;95203;-60
2024/04/09 01:14:39;;;;;;;;;5.00;4.00;;;;;21.08;100.00;98451.91;6633779;26;94981;-60
2024/04/09 01:17:44;;;;;;;;;5.00;5.00;;;;;21.05;100.00;98452.50;6624274;26;94640;-60
2024/04/09 01:20:49;;;;;;;;;4.00;4.00;;;;;21.06;100.00;98439.63;6656775;26;94534;-60
2024/04/09 01:23:58;;;;;;;;;5.00;4.00;;;;;21.09;100.00;98450.78;6653312;26;94300;-60
2024/04/09 01:27:05;;;;;;;;;4.00;4.00;;;;;21.04;100.00;98450.88;6666638;26;95642;-60
2024/04/09 01:30:12;;;;;;;;;4.00;4.00;;;;;21.00;100.00;98449.84;6612446;26;96511;-60
2024/04/09 01:33:15;;;;;;;;;4.60;4.60;;;;;21.04;100.00;98453.63;6632428;26;94666;-60
2024/04/09 01:36:21;;;;;;;;;3.60;3.60;;;;;21.01;100.00;98453.41;6656505;26;94443;-60
2024/04/09 01:39:27;;;;;;;;;4.20;4.00;;;;;21.00;100.00;98454.50;6599583;26;96042;-60
2024/04/09 01:42:32;;;;;;;;;4.40;4.40;;;;;21.00;100.00;98457.25;6597485;26;94361;-60
2024/04/09 01:45:37;;;;;;;;;4.00;4.00;;;;;20.97;100.00;98455.91;6632157;26;94497;-60
2024/04/09 01:48:47;;;;;;;;;4.00;4.00;;;;;20.94;100.00;98461.19;6615586;26;94343;-60
2024/04/09 01:51:50;;;;;;;;;5.00;5.00;;;;;20.91;100.00;98451.66;6638901;26;94881;-60
2024/04/09 01:54:57;;;;;;;;;5.00;5.00;;;;;20.92;100.00;98452.44;6601814;26;96677;-60
2024/04/09 01:58:04;;;;;;;;;4.80;4.00;;;;;20.84;100.00;98447.66;6612377;26;94730;-60
2024/04/09 02:01:09;;;;;;;;;5.00;4.50;;;;;20.88;100.00;98448.69;6633878;26;94983;-60
2024/04/09 02:04:14;;;;;;;;;4.40;4.00;;;;;20.87;100.00;98442.38;6612726;26;95571;-60
2024/04/09 02:07:17;;;;;;;;;6.00;5.00;;;;;20.74;100.00;98438.50;6636326;26;94776;-60
2024/04/09 02:10:25;;;;;;;;;4.00;3.40;;;;;20.81;100.00;98449.06;6616012;26;94643;-61
2024/04/09 02:13:29;;;;;;;;;4.00;3.75;;;;;20.78;100.00;98446.91;6611362;26;94767;-61
2024/04/09 02:16:34;;;;;;;;;4.00;4.00;;;;;20.79;100.00;98443.06;6637825;26;94699;-61
2024/04/09 02:19:37;;;;;;;;;3.00;3.00;;;;;20.76;100.00;98446.41;6628868;26;95112;-61
2024/04/09 02:22:42;;;;;;;;;4.00;4.00;;;;;20.77;100.00;98440.63;6639388;26;94350;-61
2024/04/09 02:25:47;;;;;;;;;4.00;4.00;;;;;20.79;100.00;98434.03;6614281;26;94806;-61
2024/04/09 02:28:52;;;;;;;;;3.00;3.00;;;;;20.71;100.00;98430.88;6639124;26;94389;-61
2024/04/09 02:31:59;;;;;;;;;2.75;2.75;;;;;20.81;100.00;98443.59;6591685;26;95672;-61
2024/04/09 02:35:04;;;;;;;;;4.00;4.00;;;;;20.83;100.00;98444.09;6630172;26;94331;-61
2024/04/09 02:38:09;;;;;;;;;4.00;4.00;;;;;20.79;100.00;98440.34;6630710;26;94743;-61
2024/04/09 02:41:17;;;;;;;;;4.00;4.00;;;;;20.74;100.00;98438.50;6652433;26;94804;-61
2024/04/09 02:44:19;;;;;;;;;5.00;5.00;;;;;20.67;100.00;98443.53;6611528;26;94897;-61
2024/04/09 02:47:25;;;;;;;;;5.00;4.00;;;;;20.62;100.00;98434.59;6654944;26;94518;-61
2024/04/09 02:50:28;;;;;;;;;5.00;5.00;;;;;20.69;100.00;98444.06;6608033;26;94441;-61
2024/04/09 02:53:33;;;;;;;;;3.67;3.00;;;;;20.73;100.00;98438.78;6644057;26;94742;-61
2024/04/09 02:56:38;;;;;;;;;5.00;4.00;;;;;20.79;100.00;98442.25;6649493;26;94862;-61
2024/04/09 02:59:43;;;;;;;;;5.00;4.50;;;;;20.83;100.00;98441.34;6631218;26;94629;-61
2024/04/09 03:02:50;;;;;;;;;2.40;2.40;;;;;20.83;100.00;98432.31;6627293;26;95759;-61
2024/04/09 03:05:55;;;;;;;;;4.40;4.00;;;;;20.79;100.00;98432.13;6631371;26;94373;-61
2024/04/09 03:08:58;;;;;;;;;4.40;4.40;;;;;20.77;100.00;98428.06;6629272;26;96087;-61
2024/04/09 03:12:06;;;;;;;;;4.00;4.00;;;;;20.71;100.00;98432.81;6617312;26;94759;-60
2024/04/09 03:15:09;;;;;;;;;4.40;4.00;;;;;20.68;100.00;98428.72;6627302;26;94345;-61
2024/04/09 03:18:15;;;;;;;;;4.00;4.00;;;;;20.56;100.00;98425.66;6649188;26;94596;-61
2024/04/09 03:21:20;;;;;;;;;5.00;5.00;;;;;20.51;100.00;98438.59;6652498;26;94339;-61
2024/04/09 03:24:23;;;;;;;;;4.67;4.67;;;;;20.37;100.00;98429.50;6644269;26;94295;-60
2024/04/09 03:27:31;;;;;;;;;4.00;4.00;;;;;19.97;100.00;98381.59;6645162;26;94206;-60
2024/04/09 03:30:36;;;;;;;;;5.00;4.00;;;;;20.15;100.00;98439.06;6678199;26;94509;-60
2024/04/09 03:33:39;;;;;;;;;5.33;4.00;;;;;19.88;100.00;98420.56;6665865;26;95995;-60
2024/04/09 03:36:44;;;;;;;;;7.60;5.60;;;;;19.86;100.00;98430.16;6659902;26;95037;-60
2024/04/09 03:39:49;;;;;;;;;5.40;5.40;;;;;19.51;100.00;98411.44;6601491;26;97094;-60
2024/04/09 03:42:57;;;;;;;;;5.00;5.00;;;;;19.45;100.00;98433.34;6669641;26;94351;-59
2024/04/09 03:46:03;;;;;;;;;5.40;5.00;;;;;19.34;100.00;98431.84;6665483;26;95962;-60
2024/04/09 03:49:09;;;;;;;;;7.50;7.00;;;;;19.27;100.00;98430.53;6662965;26;94356;-60
2024/04/09 03:52:12;;;;;;;;;8.40;8.00;;;;;19.20;100.00;98438.25;6610081;26;96417;-60
2024/04/09 03:55:17;;;;;;;;;9.00;8.60;;;;;19.12;100.00;98439.69;6660089;26;94329;-59
2024/04/09 03:58:22;;;;;;;;;7.75;7.00;;;;;19.04;100.00;98432.13;6641012;26;96453;-60
2024/04/09 04:01:27;;;;;;;;;9.80;9.80;;;;;18.95;100.00;98431.13;6667244;26;94879;-59
2024/04/09 04:04:32;;;;;;;;;7.80;6.80;;;;;18.86;100.00;98427.38;6633038;26;94338;-61
2024/04/09 04:07:35;;;;;;;;;8.00;7.00;;;;;18.78;100.00;98428.78;6623892;26;95792;-60
2024/04/09 04:10:40;;;;;;;;;9.00;8.40;;;;;18.67;100.00;98427.25;6659635;26;94521;-59
2024/04/09 04:13:47;;;;;;;;;7.00;7.00;;;;;18.60;100.00;98426.78;6635382;26;97222;-59
2024/04/09 04:16:50;;;;;;;;;9.00;9.00;;;;;18.46;100.00;98420.28;6663122;26;94917;-60
2024/04/09 04:19:55;;;;;;;;;7.40;7.40;;;;;18.48;100.00;98432.53;6643115;26;95158;-60
2024/04/09 04:22:57;;;;;;;;;8.00;8.00;;;;;18.44;100.00;98427.94;6644708;26;94655;-60
2024/04/09 04:26:04;;;;;;;;;9.00;8.00;;;;;18.41;100.00;98423.88;6644718;26;95416;-60
2024/04/09 04:29:12;;;;;;;;;8.75;8.00;;;;;18.42;100.00;98424.69;6647446;26;94682;-60
2024/04/09 04:32:17;;;;;;;;;9.00;9.00;;;;;18.42;100.00;98433.66;6658623;26;95025;-60
2024/04/09 04:35:22;;;;;;;;;10.00;9.00;;;;;18.45;100.00;98422.19;6630615;26;94544;-60
2024/04/09 04:38:25;;;;;;;;;9.00;9.00;;;;;18.52;100.00;98421.91;6673867;26;94468;-59
2024/04/09 04:41:30;;;;;;;;;8.00;8.00;;;;;18.55;100.00;98426.81;6677821;26;94333;-59
2024/04/09 04:44:35;;;;;;;;;11.20;8.80;;;;;18.60;100.00;98424.03;6650306;26;94587;-60
2024/04/09 04:47:40;;;;;;;;;9.00;8.60;;;;;18.58;100.00;98426.22;6665715;26;94373;-60
2024/04/09 04:50:43;;;;;;;;;11.00;9.60;;;;;18.72;100.00;98429.13;6636180;26;94634;-59
2024/04/09 04:53:48;;;;;;;;;10.50;10.00;;;;;18.80;100.00;98420.31;6589993;26;96688;-60
2024/04/09 04:56:50;;;;;;;;;10.00;8.60;;;;;18.81;100.00;98421.97;6677491;26;96433;-60
2024/04/09 04:59:58;;;;;;;;;12.00;11.25;;;;;18.91;100.00;98425.41;6639105;26;94658;-61
2024/04/09 05:03:00;;;;;;;;;11.00;10.00;;;;;19.02;100.00;98428.84;6648026;26;94404;-59
2024/04/09 05:06:07;;;;;;;;;10.00;9.00;;;;;19.19;100.00;98422.97;6636617;26;94527;-60
2024/04/09 05:09:11;;;;;;;;;11.00;11.00;;;;;19.40;100.00;98430.66;6640455;26;94865;-60
2024/04/09 05:12:16;;;;;;;;;13.00;11.40;;;;;19.58;100.00;98425.59;6663017;26;96616;-60
2024/04/09 05:15:26;;;;;;;;;15.25;14.00;;;;;19.79;100.00;98429.72;6639527;26;94862;-60
2024/04/09 05:18:32;;;;;;;;;21.00;19.40;;;;;20.00;100.00;98427.50;6655760;26;94366;-60
2024/04/09 05:21:38;;;;;;;;;26.80;22.40;;;;;20.18;100.00;98424.78;6662135;26;94486;-60
2024/04/09 05:24:43;;;;;;;;;19.60;18.60;;;;;20.33;100.00;98417.53;6653319;26;95779;-60
2024/04/09 05:27:52;;;;;;;;;18.00;17.75;;;;;20.54;100.00;98425.13;6644741;26;94185;-60
2024/04/09 05:30:57;;;;;;;;;23.50;20.00;;;;;20.80;100.00;98430.19;6639623;26;94367;-60
2024/04/09 05:34:03;;;;;;;;;17.00;16.00;;;;;20.98;100.00;98437.53;6637816;26;94484;-60
2024/04/09 05:37:09;;;;;;;;;19.00;17.00;;;;;21.15;100.00;98429.63;6611910;26;96447;-60
2024/04/09 05:40:12;;;;;;;;;18.50;17.00;;;;;21.26;100.00;98438.47;6623110;26;94583;-60
2024/04/09 05:43:18;;;;;;;;;15.60;13.60;;;;;21.40;100.00;98444.78;6610528;26;94725;-60
2024/04/09 05:46:23;;;;;;;;;18.60;15.60;;;;;21.51;100.00;98443.47;6611894;26;94830;-60
2024/04/09 05:49:28;;;;;;;;;18.50;16.00;;;;;21.51;100.00;98444.28;6614417;26;94795;-60
2024/04/09 05:52:31;;;;;;;;;18.00;16.00;;;;;21.63;100.00;98443.78;6614812;26;94531;-60
2024/04/09 05:55:36;;;;;;;;;16.00;16.00;;;;;21.80;100.00;98448.66;6615891;26;94421;-60
2024/04/09 05:58:41;;;;;;;;;16.80;15.40;;;;;21.87;100.00;98422.44;6616239;26;94902;-59
2024/04/09 06:01:46;;;;;;;;;13.75;12.00;;;;;22.20;100.00;98441.53;6615890;26;94539;-60
2024/04/09 06:04:52;;;;;;;;;13.80;13.00;;;;;22.39;100.00;98443.00;6615400;26;94409;-60
2024/04/09 06:07:57;;;;;;;;;14.00;12.25;;;;;22.60;100.00;98445.28;6615394;26;94532;-60
2024/04/09 06:11:01;;;;;;;;;14.20;13.00;;;;;22.79;100.00;98441.28;6657708;26;94832;-60
2024/04/09 06:14:06;;;;;;;;;14.00;13.00;;;;;22.99;100.00;98433.66;6659441;26;94824;-60
2024/04/09 06:17:11;;;;;;;;;13.00;12.00;;;;;23.21;100.00;98437.19;6659438;26;94379;-60
2024/04/09 06:20:16;;;;;;;;;14.00;13.00;;;;;23.38;100.00;98430.97;6643805;26;94927;-60
2024/04/09 06:23:18;;;;;;;;;15.00;14.33;;;;;23.70;100.00;98444.41;6613110;26;94914;-60
2024/04/09 06:26:24;;;;;;;;;12.00;11.60;;;;;23.91;100.00;98441.06;6628085;26;94367;-60
2024/04/09 06:29:30;;;;;;;;;12.00;10.75;;;;;24.14;100.00;98435.13;6659286;26;94722;-60
2024/04/09 06:32:38;;;;;;;;;13.40;12.60;;;;;24.41;100.00;98430.53;6658196;26;94965;-60
2024/04/09 06:35:42;;;;;;;;;14.00;13.00;;;;;24.58;100.00;98431.31;6626445;26;96598;-60
2024/04/09 06:38:48;;;;;;;;;14.50;13.00;;;;;24.75;100.00;98430.53;6659179;26;94397;-60
2024/04/09 06:41:50;;;;;;;;;12.00;11.40;;;;;24.89;100.00;98433.94;6659066;26;94793;-60
2024/04/09 06:44:56;;;;;;;;;13.50;12.50;;;;;25.09;100.00;98431.63;6626825;26;94945;-60
2024/04/09 06:48:01;;;;;;;;;13.00;12.75;;;;;25.23;100.00;98435.00;6659525;26;94455;-60
2024/04/09 06:51:07;;;;;;;;;12.80;12.20;;;;;25.39;100.00;98430.59;6678473;26;94359;-60
2024/04/09 06:54:09;;;;;;;;;14.75;13.75;;;;;25.52;100.00;98424.03;6685244;26;94496;-60
2024/04/09 06:57:16;;;;;;;;;14.00;12.00;;;;;25.73;100.00;98424.97;6653725;26;95057;-60
2024/04/09 07:00:20;;;;;;;;;13.00;12.40;;;;;26.04;100.00;98429.38;6684695;26;94394;-60
2024/04/09 07:03:28;;;;;;;;;13.00;13.00;;;;;26.30;100.00;98432.78;6684635;26;94381;-60
2024/04/09 07:06:30;;;;;;;;;11.00;10.00;;;;;26.62;100.00;98428.50;6646509;26;94598;-60
2024/04/09 07:09:36;;;;;;;;;12.60;11.00;;;;;26.91;100.00;98420.13;6660948;26;94339;-60
2024/04/09 07:12:41;;;;;;;;;12.60;10.60;;;;;26.94;100.00;98372.41;6663453;26;94629;-60
2024/04/09 07:15:44;;;;;;;;;11.00;10.75;;;;;27.43;100.00;98411.25;6659950;26;94329;-61
2024/04/09 07:18:51;;;;;;;;;11.00;10.00;;;;;27.57;100.00;98403.47;6661438;26;94858;-60
2024/04/09 07:21:54;;;;;;;;;11.00;9.00;;;;;27.77;100.00;98408.09;6637646;26;95859;-61
2024/04/09 07:24:59;;;;;;;;;12.20;10.00;;;;;27.82;100.00;98409.81;6664314;26;94338;-60
2024/04/09 07:28:01;;;;;;;;;10.75;10.00;;;;;28.00;100.00;98408.44;6683757;26;94309;-60
2024/04/09 07:31:08;;;;;;;;;10.00;9.00;;;;;28.06;100.00;98397.91;6683111;26;94289;-60
2024/04/09 07:34:14;;;;;;;;;15.00;12.00;;;;;28.23;100.00;98406.00;6682307;26;94397;-60
2024/04/09 07:37:19;;;;;;;;;18.20;15.60;;;;;28.36;100.00;98405.63;6682328;26;94363;-60
2024/04/09 07:40:21;;;;;;;;;13.50;12.50;;;;;28.54;100.00;98395.06;6682120;26;94324;-60
2024/04/09 07:43:28;;;;;;;;;9.00;9.00;;;;;28.73;100.00;98400.00;6651817;26;94302;-60
2024/04/09 07:46:37;;;;;;;;;9.40;9.40;;;;;28.96;100.00;98403.03;6650667;26;94481;-60
2024/04/09 07:49:44;;;;;;;;;9.00;7.00;;;;;29.20;100.00;98397.34;6655491;26;94353;-61
2024/04/09 07:52:49;;;;;;;;;9.00;8.00;;;;;29.42;100.00;98398.75;6680187;26;94401;-60
2024/04/09 07:55:53;;;;;;;;;9.00;8.00;;;;;29.59;100.00;98403.94;6680908;26;94433;-61
2024/04/09 07:58:58;;;;;;;;;7.00;7.00;;;;;29.67;100.00;98391.84;6649189;26;94319;-61
2024/04/09 08:02:03;;;;;;;;;8.00;8.00;;;;;29.79;100.00;98408.41;6654941;26;95351;-61
2024/04/09 08:05:09;;;;;;;;;7.00;6.00;;;;;29.97;100.00;98400.53;6642622;26;94448;-61
2024/04/09 08:08:15;;;;;;;;;8.00;7.00;;;;;30.27;100.00;98393.28;6554487;26;94754;-62
2024/04/09 08:11:18;;;;;;;;;7.00;7.00;;;;;30.61;100.00;98400.03;6636085;26;94644;-61
2024/04/09 08:14:24;;;;;;;;;8.00;7.00;;;;;30.97;100.00;98396.78;6634666;26;94412;-62
2024/04/09 08:17:26;;;;;;;;;6.00;6.00;;;;;31.34;100.00;98394.31;6633181;26;94759;-61
2024/04/09 08:20:34;;;;;;;;;7.00;7.00;;;;;31.73;100.00;98389.44;6620512;26;96590;-62
2024/04/09 08:23:39;;;;;;;;;6.00;5.75;;;;;32.20;95.45;98391.00;6618314;26;94422;-62
2024/04/09 08:26:42;;;;;;;;;7.00;7.00;;;;;32.58;98.75;98370.41;6583623;26;94918;-62
2024/04/09 08:29:47;;;;;;;;;8.40;8.00;;;;;33.03;86.58;98374.94;6585789;26;96454;-61
2024/04/09 08:32:50;;;;;;;;;9.60;7.60;;;;;33.58;90.48;98381.47;6553208;26;94682;-62
2024/04/09 08:35:58;;;;;;;;;7.25;7.25;;;;;34.14;86.90;98369.16;6613968;26;94688;-62
2024/04/09 08:39:03;;;;;;;;;5.40;5.00;;;;;34.84;82.05;98379.97;6635812;26;94989;-62
2024/04/09 08:42:07;;;;;;;;;6.00;5.80;;;;;35.49;77.24;98373.31;6658361;26;94740;-62
2024/04/09 08:45:14;;;;;;;;;6.00;5.40;;;;;35.93;72.05;98367.31;6657816;26;94883;-62
2024/04/09 08:48:21;;;;;;;;;7.40;7.00;;;;;36.32;72.54;98356.03;6657512;26;94606;-62
2024/04/09 08:51:27;;;;;;;;;7.00;5.00;;;;;37.06;62.17;98361.34;6626117;26;94215;-62
2024/04/09 08:54:33;;;;;;;;;5.00;4.60;;;;;37.77;62.41;98362.91;6630748;26;95349;-62
2024/04/09 08:57:40;;;;;;;;;4.80;4.00;;;;;38.55;55.66;98354.50;6581586;26;94654;-62
2024/04/09 09:00:42;;;;;;;;;5.00;5.00;;;;;39.48;54.35;98348.41;6613218;26;94721;-62
2024/04/09 09:03:49;;;;;;;;;3.00;3.00;;;;;40.08;45.65;98348.16;6613206;26;94674;-62
2024/04/09 09:06:58;;;;;;;;;3.00;2.75;;;;;39.95;43.63;98335.13;6614936;26;96684;-62
2024/04/09 09:10:06;;;;;;;;;5.00;5.00;;;;;38.40;40.69;98351.03;6631558;26;94406;-61
2024/04/09 09:13:08;;;;;;;;;2.60;2.40;;;;;38.80;42.29;98352.16;6616755;26;94659;-62
2024/04/09 09:16:13;;;;;;;;;4.00;4.00;;;;;38.34;42.93;98347.06;6616700;26;94725;-62
2024/04/09 09:19:18;;;;;;;;;4.00;4.00;;;;;39.13;42.76;98353.34;6616696;26;94490;-62
2024/04/09 09:22:29;;;;;;;;;4.00;4.00;;;;;39.78;43.37;98343.47;6616476;26;94412;-62
2024/04/09 09:25:32;;;;;;;;;4.00;4.00;;;;;40.43;40.36;98343.09;6615495;26;94411;-62
2024/04/09 09:28:37;;;;;;;;;3.60;3.00;;;;;41.09;39.53;98340.91;6615488;26;94864;-62
2024/04/09 09:31:40;;;;;;;;;4.33;4.33;;;;;42.55;38.64;98342.84;6555458;26;96510;-62
2024/04/09 09:34:46;;;;;;;;;4.00;3.00;;;;;43.77;36.82;98347.16;6614755;26;94771;-62
2024/04/09 09:37:55;;;;;;;;;4.80;4.80;;;;;43.49;36.48;98329.06;6615383;26;94592;-62
2024/04/09 09:41:04;;;;;;;;;5.00;5.00;;;;;44.20;36.36;98327.41;6658649;26;95824;-62
2024/04/09 09:44:08;;;;;;;;;4.25;4.25;;;;;45.06;34.20;98334.34;6646126;26;94335;-62
2024/04/09 09:47:13;;;;;;;;;4.00;4.00;;;;;45.43;35.35;98321.09;6658722;26;95249;-60
2024/04/09 09:50:17;;;;;;;;;3.40;3.40;;;;;46.19;34.17;98319.50;6657264;26;95377;-60
2024/04/09 09:53:26;;;;;;;;;5.00;4.00;;;;;46.83;34.30;98323.06;6657822;26;94676;-60
2024/04/09 09:56:30;;;;;;;;;4.00;4.00;;;;;46.78;33.22;98324.50;6626799;26;94786;-60
2024/04/09 09:59:41;;;;;;;;;5.00;5.00;;;;;44.79;33.43;98319.97;6625448;26;96150;-60
2024/04/09 10:02:44;;;;;;;;;5.00;4.00;;;;;44.86;34.76;98311.16;6658007;26;94893;-60
2024/04/09 10:05:53;;;;;;;;;6.00;5.00;;;;;44.81;36.24;98301.19;6585726;26;95148;-59
2024/04/09 10:09:05;;;;;;;;;5.00;5.00;;;;;42.64;36.15;98309.75;6567980;26;95033;-60
2024/04/09 10:12:21;;;;;;;;;4.20;4.20;;;;;42.87;36.25;98305.03;6570523;26;94529;-60
2024/04/09 10:15:28;;;;;;;;;4.00;4.00;;;;;43.83;35.22;98294.22;6589740;26;94378;-60
2024/04/09 10:18:37;;;;;;;;;4.00;4.00;;;;;44.27;35.12;98295.91;6611187;26;96549;-60
2024/04/09 10:21:41;;;;;;;;;5.00;5.00;;;;;45.34;34.76;98297.47;6588244;26;95226;-59
2024/04/09 10:24:49;;;;;;;;;4.75;4.75;;;;;47.13;34.74;98289.84;6570111;26;94385;-60
2024/04/09 10:28:00;;;;;;;;;4.80;4.80;;;;;48.30;31.21;98289.56;6571277;26;94722;-60
2024/04/09 10:31:08;;;;;;;;;5.00;5.00;;;;;49.09;33.06;98281.13;6601405;26;94960;-60
2024/04/09 10:34:26;;;;;;;;;6.00;5.80;;;;;50.37;30.69;98265.66;6602568;26;95019;-60
2024/04/09 10:37:33;;;;;;;;;5.00;4.00;;;;;51.09;29.65;98264.25;6589204;26;94929;-60
2024/04/09 10:40:41;;;;;;;;;5.00;4.40;;;;;50.62;28.19;98254.19;6567366;26;97359;-63
2024/04/09 10:43:43;;;;;;;;;3.00;3.00;;;;;49.25;28.66;98260.56;6582002;26;95702;-61
2024/04/09 10:46:48;;;;;;;;;5.00;4.40;;;;;49.77;27.69;98239.44;6593217;26;95764;-60
2024/04/09 10:49:51;;;;;;;;;4.40;3.40;;;;;50.91;28.36;98250.28;6601328;26;95045;-61
2024/04/09 10:52:57;;;;;;;;;4.00;3.00;;;;;51.44;26.82;98251.72;6610130;26;94917;-61
2024/04/09 10:56:05;;;;;;;;;4.00;3.00;;;;;50.63;26.81;98246.38;6613254;26;94509;-61
2024/04/09 10:59:13;;;;;;;;;4.00;3.20;;;;;51.25;28.45;98239.03;6613230;26;94550;-61
2024/04/09 11:02:18;;;;;;;;;3.00;3.00;;;;;51.15;26.92;98217.56;6613701;26;94539;-61
2024/04/09 11:05:21;;;;;;;;;4.00;3.00;;;;;50.29;26.11;98222.31;6643541;26;94932;-61
2024/04/09 11:08:28;;;;;;;;;4.20;4.00;;;;;49.75;25.51;98215.47;6625393;26;95932;-61
2024/04/09 11:11:40;;;;;;;;;4.00;4.00;;;;;49.76;28.29;98214.13;6652126;26;95047;-61
2024/04/09 11:14:43;;;;;;;;;4.00;4.00;;;;;49.88;27.01;98198.66;6647636;26;95008;-60
2024/04/09 11:17:48;;;;;;;;;4.00;4.00;;;;;48.31;27.91;98214.75;6616075;26;95015;-60
2024/04/09 11:20:52;;;;;;;;;5.00;4.00;;;;;48.77;26.92;98200.75;6594127;26;94982;-60
2024/04/09 11:23:58;;;;;;;;;4.00;4.00;;;;;49.70;27.94;98191.16;6633652;26;95032;-61
2024/04/09 11:27:07;;;;;;;;;4.40;4.40;;;;;49.63;28.51;98200.16;6625399;26;95013;-60
2024/04/09 11:30:21;;;;;;;;;2.60;2.00;;;;;49.39;28.19;98197.53;6619337;26;95474;-60
2024/04/09 11:33:29;;;;;;;;;4.00;3.00;;;;;49.96;28.13;98194.03;6650869;26;95982;-60
2024/04/09 11:36:33;;;;;;;;;2.50;2.50;;;;;49.38;25.05;98184.47;6621025;26;96079;-62
2024/04/09 11:39:40;;;;;;;;;3.00;2.60;;;;;49.65;26.64;98196.81;6651962;26;95819;-61
2024/04/09 11:42:45;;;;;;;;;3.00;3.00;;;;;50.53;25.78;98191.25;6651571;26;95572;-62
2024/04/09 11:45:51;;;;;;;;;3.25;3.25;;;;;51.15;27.33;98192.50;6651766;26;94945;-61
2024/04/09 11:48:55;;;;;;;;;3.80;3.00;;;;;49.31;25.19;98187.78;6654086;26;95043;-62
2024/04/09 11:52:06;;;;;;;;;4.00;4.00;;;;;48.48;24.41;98175.03;6645704;26;94971;-61
2024/04/09 11:55:09;;;;;;;;;6.00;4.00;;;;;48.55;24.86;98172.53;6634827;26;95903;-60
2024/04/09 11:58:18;;;;;;;;;4.40;4.00;;;;;47.92;26.09;98167.47;6629579;26;94945;-61
2024/04/09 12:01:20;;;;;;;;;4.00;4.00;;;;;46.41;28.16;98171.88;6652269;26;95300;-61
2024/04/09 12:04:26;;;;;;;;;5.00;5.00;;;;;45.55;28.87;98157.84;6650939;26;94595;-61
2024/04/09 12:07:32;;;;;;;;;4.00;3.00;;;;;44.44;28.89;98145.84;6655894;26;94682;-61
2024/04/09 12:10:35;;;;;;;;;3.60;3.60;;;;;42.20;31.46;98144.28;6622876;26;94961;-61
2024/04/09 12:13:42;;;;;;;;;4.40;3.60;;;;;39.83;33.91;98139.75;6647130;26;94898;-61
2024/04/09 12:16:48;;;;;;;;;5.00;4.00;;;;;38.61;38.00;98135.13;6656891;26;95157;-60
2024/04/09 12:19:50;;;;;;;;;4.60;4.60;;;;;37.08;39.23;98122.91;6631506;26;94880;-60
2024/04/09 12:22:55;;;;;;;;;4.40;4.00;;;;;37.13;42.24;98135.72;6652137;26;94533;-60
2024/04/09 12:25:59;;;;;;;;;5.40;4.40;;;;;36.73;42.27;98129.59;6657316;26;94892;-60
2024/04/09 12:29:07;;;;;;;;;4.00;4.00;;;;;36.14;44.18;98120.38;6624611;26;94840;-60
2024/04/09 12:32:10;;;;;;;;;6.00;5.00;;;;;35.06;43.92;98120.28;6657395;26;94697;-59
2024/04/09 12:35:15;;;;;;;;;5.00;5.00;;;;;35.26;45.36;98112.25;6649189;26;94287;-59
2024/04/09 12:38:21;;;;;;;;;4.25;4.00;;;;;35.06;42.86;98100.66;6631181;26;95625;-59
2024/04/09 12:41:27;;;;;;;;;6.00;5.40;;;;;35.20;42.84;98109.88;6668823;26;94306;-60
2024/04/09 12:44:35;;;;;;;;;3.00;3.00;;;;;35.05;39.29;98101.84;6661766;26;94605;-60
2024/04/09 12:47:41;;;;;;;;;3.60;3.00;;;;;34.99;40.32;98095.09;6651496;26;94313;-60
2024/04/09 12:50:44;;;;;;;;;4.00;4.00;;;;;35.34;37.54;98097.00;6659971;26;94341;-60
2024/04/09 12:53:49;;;;;;;;;4.40;4.00;;;;;35.41;37.23;98102.59;6677431;26;94419;-60
2024/04/09 12:56:52;;;;;;;;;3.00;3.00;;;;;35.42;41.04;98099.41;6678318;26;96091;-60
2024/04/09 13:00:00;;;;;;;;;4.00;4.00;;;;;35.45;37.16;98095.78;6662216;26;94349;-60
2024/04/09 13:03:23;;;;;;;;;3.75;3.50;;;;;35.36;37.16;98083.41;6643931;26;94388;-60
2024/04/09 13:06:28;;;;;;;;;4.00;3.00;;;;;35.34;38.28;98088.59;6676972;26;94684;-59
2024/04/09 13:09:33;;;;;;;;;6.00;5.00;;;;;35.27;37.67;98088.66;6640376;26;94293;-60
2024/04/09 13:12:36;;;;;;;;;6.40;4.00;;;;;35.27;39.33;98092.25;6663349;26;94456;-60
2024/04/09 13:15:43;;;;;;;;;4.00;3.40;;;;;35.27;37.69;98081.03;6664044;26;95573;-61
2024/04/09 13:18:49;;;;;;;;;3.00;3.00;;;;;35.17;36.46;98084.66;6654868;26;94833;-60
2024/04/09 13:21:54;;;;;;;;;3.00;3.00;;;;;34.98;36.25;98085.88;6637059;26;94916;-60
2024/04/09 13:24:59;;;;;;;;;3.00;3.00;;;;;34.40;36.27;98058.31;6677163;26;94424;-60
2024/04/09 13:28:03;;;;;;;;;5.00;3.40;;;;;34.40;36.66;98085.47;6675488;26;94387;-60
2024/04/09 13:31:11;;;;;;;;;3.00;3.00;;;;;33.87;37.13;98074.94;6639019;26;94962;-60
2024/04/09 13:34:13;;;;;;;;;3.40;3.00;;;;;33.86;39.64;98081.75;6626596;26;94866;-60
2024/04/09 13:37:23;;;;;;;;;6.00;4.00;;;;;34.02;41.66;98072.97;6633625;26;94587;-60
2024/04/09 13:40:25;;;;;;;;;5.00;4.00;;;;;33.94;40.36;98069.38;6648295;26;95631;-60
2024/04/09 13:43:30;;;;;;;;;3.60;3.00;;;;;34.14;41.86;98075.41;6584240;26;94717;-60
2024/04/09 13:46:35;;;;;;;;;5.00;4.00;;;;;34.09;42.24;98070.22;6645583;26;94252;-60
2024/04/09 13:49:40;;;;;;;;;5.00;4.60;;;;;34.01;41.66;98055.44;6638622;26;94351;-60
2024/04/09 13:52:43;;;;;;;;;4.00;4.00;;;;;34.06;38.04;98071.03;6605469;26;94534;-57
2024/04/09 13:55:48;;;;;;;;;7.00;6.00;;;;;34.14;38.73;98061.44;6644171;26;94705;-57
2024/04/09 13:58:50;;;;;;;;;3.00;3.00;;;;;34.17;38.62;98064.22;6648058;26;95831;-56
2024/04/09 14:01:58;;;;;;;;;4.00;3.50;;;;;33.89;38.41;98062.19;6644683;26;94397;-57
2024/04/09 14:05:01;;;;;;;;;3.00;3.00;;;;;33.78;39.05;98060.53;6662121;26;95533;-56
2024/04/09 14:08:07;;;;;;;;;4.00;3.60;;;;;33.82;38.23;98062.16;6669006;26;94278;-59
2024/04/09 14:11:12;;;;;;;;;2.80;2.80;;;;;33.78;41.49;98069.75;6626543;26;95504;-57
2024/04/09 14:14:15;;;;;;;;;4.00;3.80;;;;;33.95;43.49;98057.00;6629882;26;95684;-57
2024/04/09 14:17:23;;;;;;;;;3.00;3.00;;;;;33.69;43.77;98058.13;6647981;26;95775;-57
2024/04/09 14:20:28;;;;;;;;;4.00;4.00;;;;;33.65;43.20;98050.91;6656524;26;94366;-56